createdAt,value
2022-10-21T05:38:06.960Z,15.02
2022-10-21T05:43:28.416Z,19.25
2022-10-21T05:48:49.313Z,30.27
2022-10-21T05:59:30.940Z,14.95
2022-10-21T06:04:51.864Z,15.27
2022-10-21T06:10:12.897Z,14.63
2022-10-21T06:15:34.040Z,15.43
2022-10-21T06:20:54.836Z,15.18
2022-10-21T06:26:16.669Z,15.93
2022-10-21T06:31:37.526Z,17.92
2022-10-21T06:36:58.253Z,15.05
2022-10-21T06:42:19.226Z,14.65
2022-10-21T06:47:41.837Z,14.65
2022-10-21T06:53:03.112Z,14.85
2022-10-21T06:58:24.034Z,15.40
2022-10-21T07:03:44.890Z,13.85
2022-10-21T07:09:08.178Z,14.63
2022-10-21T07:14:29.036Z,13.98
2022-10-21T07:25:10.546Z,17.73
2022-10-21T07:35:52.889Z,14.23
2022-10-21T07:41:16.147Z,14.73
2022-10-21T07:46:39.986Z,14.02
2022-10-21T07:52:00.784Z,14.10
2022-10-21T07:57:21.720Z,15.27
2022-10-21T08:02:42.452Z,13.70
2022-10-21T08:08:03.528Z,13.95
2022-10-21T08:13:24.857Z,12.75
2022-10-21T08:18:45.976Z,13.90
2022-10-21T08:24:07.007Z,14.85
2022-10-21T08:29:28.367Z,13.88
2022-10-21T08:34:49.185Z,14.13
2022-10-21T08:40:10.795Z,14.07
2022-10-21T08:45:43.992Z,14.02
2022-10-21T08:51:07.077Z,13.02
2022-10-21T08:56:31.258Z,11.68
2022-10-21T09:02:14.356Z,11.65
2022-10-21T09:07:47.262Z,12.00
2022-10-21T09:13:26.471Z,10.90
2022-10-21T09:19:22.572Z,11.38
2022-10-21T09:24:59.798Z,12.10
2022-10-21T09:30:23.206Z,13.35
2022-10-21T09:35:49.385Z,11.40
2022-10-21T09:41:24.360Z,11.23
2022-10-21T09:46:46.833Z,9.57
2022-10-21T09:52:07.999Z,15.38
2022-10-21T09:58:14.280Z,8.65
2022-10-21T10:03:43.786Z,8.55
2022-10-21T10:09:13.324Z,7.97
2022-10-21T10:14:43.121Z,7.35
2022-10-21T10:20:04.054Z,7.30
2022-10-21T10:25:29.555Z,7.65
2022-10-21T10:30:54.165Z,7.78
2022-10-21T10:36:27.271Z,7.97
2022-10-21T10:41:51.465Z,8.52
2022-10-21T10:47:24.207Z,7.82
2022-10-21T10:52:45.201Z,8.07
2022-10-21T10:58:14.500Z,6.90
2022-10-21T11:03:45.077Z,6.88
2022-10-21T11:09:07.740Z,11.82
2022-10-21T11:14:28.795Z,7.28
2022-10-21T11:19:56.747Z,7.50
2022-10-21T11:25:42.594Z,7.10
2022-10-21T11:31:06.337Z,7.63
2022-10-21T11:36:33.579Z,7.00
2022-10-21T11:42:22.885Z,7.32
2022-10-21T11:47:56.057Z,6.70
2022-10-21T11:53:36.369Z,6.90
2022-10-21T11:59:54.120Z,6.78
2022-10-21T12:05:37.613Z,6.38
2022-10-21T12:11:04.805Z,6.10
2022-10-21T12:16:30.331Z,6.53
2022-10-21T12:21:52.359Z,6.55
2022-10-21T12:27:22.397Z,7.00
2022-10-21T12:32:43.093Z,6.00
2022-10-21T12:43:28.781Z,6.30
2022-10-21T12:48:50.148Z,6.50
2022-10-21T12:54:19.733Z,6.05
2022-10-21T12:59:43.829Z,6.03
2022-10-21T13:05:04.823Z,6.68
2022-10-21T13:10:26.238Z,6.20
2022-10-21T13:15:47.931Z,6.10
2022-10-21T13:21:23.837Z,6.47
2022-10-21T13:26:52.739Z,6.25
2022-10-21T13:32:19.470Z,6.35
2022-10-21T13:37:50.279Z,6.22
2022-10-21T13:43:16.110Z,6.57
2022-10-21T13:48:48.195Z,5.97
2022-10-21T13:54:13.718Z,6.38
2022-10-21T13:59:34.956Z,6.70
2022-10-21T14:04:55.889Z,5.93
2022-10-21T14:10:17.777Z,6.10
2022-10-21T14:15:43.721Z,6.63
2022-10-21T14:21:06.266Z,7.15
2022-10-21T14:26:31.895Z,6.45
2022-10-21T14:31:53.343Z,6.10
2022-10-21T14:37:14.352Z,6.22
2022-10-21T14:48:26.414Z,6.40
2022-10-21T14:54:00.062Z,6.88
2022-10-21T14:59:41.248Z,6.55
2022-10-21T15:05:04.851Z,6.85
2022-10-21T15:10:26.577Z,6.82
2022-10-21T15:15:54.096Z,6.72
2022-10-21T15:21:25.493Z,6.03
2022-10-21T15:26:48.502Z,5.95
2022-10-21T15:32:11.630Z,6.82
2022-10-21T15:37:32.235Z,6.60
2022-10-21T15:48:14.508Z,6.63
2022-10-21T15:53:35.400Z,6.38
2022-10-21T15:58:56.249Z,5.35
2022-10-21T16:09:38.360Z,6.50
2022-10-21T16:14:59.245Z,7.13
2022-10-21T16:20:29.361Z,27.38
2022-10-21T16:25:50.090Z,10.82
2022-10-21T16:41:57.108Z,9.13
2022-10-21T16:47:20.334Z,8.93
2022-10-21T16:52:41.841Z,9.02
2022-10-21T16:58:02.665Z,9.80
2022-10-21T17:03:23.624Z,10.15
2022-10-21T17:08:44.846Z,11.23
2022-10-21T17:14:08.422Z,11.52
2022-10-21T17:19:28.990Z,10.13
2022-10-21T17:30:12.290Z,11.93
2022-10-21T17:35:33.183Z,15.10
2022-10-21T17:46:23.386Z,12.20
2022-10-21T17:51:44.427Z,15.73
2022-10-21T17:57:05.505Z,12.13
2022-10-21T18:02:33.380Z,12.48
2022-10-21T18:07:54.604Z,13.57
2022-10-21T18:13:17.888Z,13.10
2022-10-21T18:18:39.332Z,12.18
2022-10-21T18:24:00.197Z,13.30
2022-10-21T18:29:22.247Z,11.30
2022-10-21T18:34:43.037Z,12.20
2022-10-21T18:45:25.038Z,13.53
2022-10-21T18:56:08.471Z,14.20
2022-10-21T19:01:29.403Z,15.73
2022-10-21T19:12:15.513Z,15.60
2022-10-21T19:17:40.572Z,15.02
2022-10-21T19:23:01.803Z,13.93
2022-10-21T19:33:43.964Z,13.15
2022-10-21T19:39:04.729Z,17.42
2022-10-21T19:44:25.677Z,17.42
2022-10-21T19:55:07.401Z,15.10
2022-10-21T20:00:28.546Z,13.05
2022-10-21T20:11:16.725Z,14.90
2022-10-21T20:16:41.975Z,21.90
2022-10-21T20:22:02.813Z,40.42
2022-10-21T20:27:23.862Z,12.45
2022-10-21T20:38:07.019Z,10.02
2022-10-21T20:43:27.996Z,11.05
2022-10-21T20:48:50.401Z,11.88
2022-10-21T20:54:15.182Z,10.90
2022-10-21T20:59:36.496Z,11.60
2022-10-21T21:04:57.681Z,11.95
2022-10-21T21:10:18.722Z,10.95
2022-10-21T21:15:39.308Z,11.63
2022-10-21T21:21:09.307Z,16.45
2022-10-21T21:26:36.262Z,16.17
2022-10-21T21:31:57.109Z,26.13
2022-10-21T21:37:17.863Z,28.52
2022-10-21T21:42:39.087Z,15.80
2022-10-21T21:48:00.180Z,12.77
2022-10-21T21:53:24.808Z,14.63
2022-10-21T21:58:49.084Z,14.10
